Terminal Aerodrome Forecast
Issued by NWS Tulsa, OK

Home | Current Version | Previous Version | Text Only | Print | Product List | Glossary On
Versions: 1 2 3 4 5 6 7 8 9 10 11 12 13 14
000
FTUS44 KTSA 231120
TAFFSM
TAF
KFSM 231120Z 2312/2412 30005KT P6SM BKN040
      TEMPO 2312/2316 BKN015
     FM231600 29008KT P6SM BKN025
     FM231900 30010G16KT P6SM VCSH BKN050
      TEMPO 2320/2323 4SM -TSRA BKN030CB
     FM240000 29005KT P6SM BKN100=

USA.gov is the U.S. government's official web portal to all federal, state and local government web resources and services.